Time;durP1;ratioP1;P1;durP2;ratioP2;P2;SDS_P1;SDS_P2;PMS_P1;PMS_P2;Temp;Humidity;BMP_temperature;BMP_pressure;BME280_temperature;BME280_humidity;BME280_pressure;Samples;Min_cycle;Max_cycle;Signal;HPM_P1;HPM_P2
2023/06/03 00:00:24;;;;;;;2.88;0.40;;;;;;;-146.25;55.12;52098.53;2079526;28;20038;-69
2023/06/03 00:01:27;;;;;;;0.90;0.22;;;;;;;-146.25;54.30;52126.91;2079638;28;36956;-69
2023/06/03 00:02:29;;;;;;;1.17;0.40;;;;;;;-146.25;55.10;52114.75;2080094;28;20042;-69
2023/06/03 00:03:34;;;;;;;1.70;0.45;;;;;;;-146.25;55.40;52094.47;2079618;28;35939;-70
2023/06/03 00:04:41;;;;;;;1.40;0.40;;;;;;;-146.25;55.62;52088.41;2079310;28;35222;-69
2023/06/03 00:05:43;;;;;;;3.08;0.40;;;;;;;-146.25;55.56;52092.44;2087244;28;29790;-68
2023/06/03 00:06:45;;;;;;;1.38;0.40;;;;;;;-146.25;55.61;52098.53;2086009;28;38688;-69
2023/06/03 00:07:47;;;;;;;1.73;0.40;;;;;;;-146.25;55.64;52120.84;2079722;28;33490;-69
2023/06/03 00:08:48;;;;;;;3.40;0.30;;;;;;;-146.25;55.72;52120.84;2079275;28;34173;-69
2023/06/03 00:09:50;;;;;;;1.42;0.30;;;;;;;-146.25;56.16;52128.94;2079598;28;39176;-68
2023/06/03 00:10:52;;;;;;;2.13;0.60;;;;;;;-146.25;56.15;52128.94;2080030;28;20089;-69
2023/06/03 00:11:54;;;;;;;4.72;0.38;;;;;;;-146.25;56.44;52124.91;2079235;28;26136;-68
2023/06/03 00:12:58;;;;;;;1.17;0.32;;;;;;;-146.25;56.44;52116.78;2079776;28;20038;-68
2023/06/03 00:14:00;;;;;;;0.98;0.40;;;;;;;-146.25;56.76;52106.66;2079659;28;35024;-68
2023/06/03 00:15:02;;;;;;;1.73;0.50;;;;;;;-146.25;56.76;52126.91;2079259;28;37346;-69
2023/06/03 00:16:06;;;;;;;1.77;0.38;;;;;;;-146.25;56.68;52135.03;2080178;28;20092;-68
2023/06/03 00:17:11;;;;;;;0.93;0.30;;;;;;;-146.25;57.01;52135.03;2079192;28;35578;-68
2023/06/03 00:18:15;;;;;;;2.13;0.30;;;;;;;-146.25;57.32;52126.91;2079340;28;34213;-68
2023/06/03 00:19:17;;;;;;;2.40;0.50;;;;;;;-146.25;57.24;52130.97;2087812;28;20918;-69
2023/06/03 00:20:21;;;;;;;1.23;0.40;;;;;;;-146.25;57.80;52084.34;2086794;28;35185;-71
2023/06/03 00:21:23;;;;;;;3.38;0.40;;;;;;;-146.25;57.83;52135.03;2079218;28;37049;-70
2023/06/03 00:22:27;;;;;;;1.55;0.40;;;;;;;-146.25;58.35;52104.63;2080145;28;20892;-68
2023/06/03 00:23:31;;;;;;;2.33;0.30;;;;;;;-146.25;58.81;52112.72;2078841;28;37193;-68
2023/06/03 00:24:35;;;;;;;1.85;0.40;;;;;;;-146.25;58.54;52133.00;2078786;28;38988;-68
2023/06/03 00:25:36;;;;;;;1.88;0.43;;;;;;;-146.25;58.67;52135.03;2078937;28;34186;-68
2023/06/03 00:26:38;;;;;;;2.28;0.38;;;;;;;-146.25;59.01;52112.72;2079072;28;37685;-68
2023/06/03 00:27:41;;;;;;;2.80;0.40;;;;;;;-146.25;59.57;52088.41;2078903;28;20092;-68
2023/06/03 00:28:42;;;;;;;3.58;0.43;;;;;;;-146.25;60.10;52124.91;2078906;28;26070;-69
2023/06/03 00:29:44;;;;;;;2.30;0.30;;;;;;;-146.25;59.07;52135.03;2078817;28;25704;-70
2023/06/03 00:30:46;;;;;;;2.20;0.30;;;;;;;-146.25;59.83;52133.00;2079072;28;25413;-70
2023/06/03 00:31:48;;;;;;;1.48;0.30;;;;;;;-146.25;59.42;52094.47;2079072;28;20364;-70
2023/06/03 00:32:50;;;;;;;2.10;0.40;;;;;;;-146.25;59.76;52084.34;2078925;28;30905;-69
2023/06/03 00:33:52;;;;;;;2.55;0.40;;;;;;;-146.25;60.03;52122.88;2079838;28;22596;-70
2023/06/03 00:34:54;;;;;;;1.58;0.40;;;;;;;-146.25;59.93;52104.63;2079618;28;29663;-70
2023/06/03 00:35:55;;;;;;;2.17;0.50;;;;;;;-146.25;59.99;52153.28;2079650;28;24951;-70
2023/06/03 00:37:00;;;;;;;2.38;0.30;;;;;;;-146.25;59.77;52090.44;2079800;28;26970;-70
2023/06/03 00:38:03;;;;;;;2.15;0.40;;;;;;;-146.25;59.48;52118.81;2079262;28;27642;-68
2023/06/03 00:39:08;;;;;;;1.25;0.30;;;;;;;-146.25;60.25;52141.13;2079468;28;23274;-68
2023/06/03 00:40:11;;;;;;;3.28;0.47;;;;;;;-146.25;59.67;52151.25;2079838;28;28652;-68
2023/06/03 00:41:15;;;;;;;2.58;0.30;;;;;;;-146.25;60.43;52126.91;2079019;28;20042;-69
2023/06/03 00:42:17;;;;;;;0.95;0.30;;;;;;;-146.25;60.55;52163.41;2079266;28;20072;-70
2023/06/03 00:43:19;;;;;;;2.42;0.22;;;;;;;-146.25;60.85;52104.63;2078906;28;20176;-69
2023/06/03 00:44:21;;;;;;;3.83;0.40;;;;;;;-146.25;61.20;52141.13;2079404;28;20120;-69
2023/06/03 00:45:23;;;;;;;2.72;0.45;;;;;;;-146.25;61.27;52102.59;2081028;28;27611;-69
2023/06/03 00:46:25;;;;;;;1.45;0.45;;;;;;;-146.25;62.07;52088.41;2079993;28;31490;-69
2023/06/03 00:47:28;;;;;;;1.30;0.30;;;;;;;-146.25;61.88;52137.06;2080217;28;30093;-69
2023/06/03 00:48:30;;;;;;;2.33;0.32;;;;;;;-146.25;61.86;52112.72;2080697;28;29609;-69
2023/06/03 00:49:32;;;;;;;1.90;0.30;;;;;;;-146.25;61.82;52133.00;2072101;28;27825;-69
2023/06/03 00:50:35;;;;;;;2.00;0.35;;;;;;;-146.25;62.29;52128.94;2072105;28;31013;-69
2023/06/03 00:51:37;;;;;;;3.08;0.45;;;;;;;-146.25;62.29;52114.75;2088621;28;24387;-68
2023/06/03 00:52:40;;;;;;;2.40;0.40;;;;;;;-146.25;63.03;52092.44;2087660;28;24268;-69
2023/06/03 00:53:43;;;;;;;1.83;0.40;;;;;;;-146.25;62.29;52124.91;2080678;28;26387;-69
2023/06/03 00:54:47;;;;;;;5.72;0.40;;;;;;;-146.25;63.27;52112.72;2088364;28;28154;-69
2023/06/03 00:55:49;;;;;;;1.70;0.38;;;;;;;-146.25;62.31;52130.97;2088523;28;30407;-69
2023/06/03 00:56:51;;;;;;;1.17;0.38;;;;;;;-146.25;63.36;52133.00;2088097;28;26266;-68
2023/06/03 00:57:54;;;;;;;1.48;0.50;;;;;;;-146.25;63.52;52108.66;2081044;28;23547;-69
2023/06/03 00:58:58;;;;;;;1.45;0.30;;;;;;;-146.25;63.09;52128.94;2088807;28;21011;-69
2023/06/03 01:00:03;;;;;;;2.88;0.47;;;;;;;-146.25;63.98;52084.34;2079339;28;20898;-69
2023/06/03 01:01:05;;;;;;;1.25;0.20;;;;;;;-146.25;63.75;52098.53;2073465;28;22946;-69
2023/06/03 01:02:07;;;;;;;2.15;0.40;;;;;;;-146.25;63.92;52074.22;2080881;28;28076;-69
2023/06/03 01:03:13;;;;;;;2.65;0.40;;;;;;;-146.25;63.34;52108.66;2080551;28;27806;-69
2023/06/03 01:04:18;;;;;;;2.60;0.40;;;;;;;-146.25;64.20;52155.31;2081387;28;29854;-69
2023/06/03 01:05:20;;;;;;;3.30;0.43;;;;;;;-146.25;63.84;52116.78;2080112;28;31385;-69
2023/06/03 01:06:33;;;;;;;1.98;0.50;;;;;;;-146.25;63.93;52112.72;2080172;28;31520;-69
2023/06/03 01:08:09;;;;;;;0.85;0.30;;;;;;;-146.25;64.34;52110.69;2074262;28;20168;-70
2023/06/03 01:10:10;;;;;;;1.65;0.30;;;;;;;-146.25;64.47;52128.94;2078094;28;29309;-68
2023/06/03 01:11:19;;;;;;;;;;;;;;;-146.25;64.17;52116.78;2080064;28;29666;-67
2023/06/03 01:12:57;;;;;;;2.35;0.38;;;;;;;-146.25;63.97;52118.81;2080904;28;19937;-68
2023/06/03 01:14:25;;;;;;;2.03;0.43;;;;;;;-146.25;65.00;52100.56;2088378;28;32780;-69
2023/06/03 01:15:32;;;;;;;2.92;0.45;;;;;;;-146.25;65.23;52120.84;2081364;28;22040;-68
2023/06/03 01:16:35;;;;;;;1.50;0.50;;;;;;;-146.25;64.67;52128.94;2074265;28;20039;-70
2023/06/03 01:17:45;;;;;;;3.72;0.50;;;;;;;-146.25;64.77;52143.13;2080560;28;20037;-68
2023/06/03 01:18:48;;;;;;;1.17;0.30;;;;;;;-146.25;65.04;52116.78;2079964;28;33536;-70
2023/06/03 01:19:52;;;;;;;1.33;0.30;;;;;;;-146.25;65.39;52112.72;2064010;28;28941;-68
2023/06/03 01:21:00;;;;;;;2.05;0.35;;;;;;;-146.25;65.60;52133.00;2056633;28;27407;-70
2023/06/03 01:22:07;;;;;;;1.00;0.47;;;;;;;-146.25;65.77;52096.50;2065871;28;20170;-70
2023/06/03 01:23:23;;;;;;;1.35;0.30;;;;;;;-146.25;66.71;52124.91;2065883;28;29808;-70
2023/06/03 01:24:26;;;;;;;2.83;0.47;;;;;;;-146.25;65.91;52124.91;2081026;28;26274;-68
2023/06/03 01:25:28;;;;;;;2.42;0.40;;;;;;;-146.25;66.01;52114.75;2080706;28;30565;-67
2023/06/03 01:26:31;;;;;;;1.52;0.38;;;;;;;-146.25;66.39;52130.97;2080295;28;31973;-67
2023/06/03 01:27:36;;;;;;;1.38;0.40;;;;;;;-146.25;66.39;52139.09;2079667;28;24707;-67
2023/06/03 01:28:41;;;;;;;1.65;0.30;;;;;;;-146.25;66.20;52104.63;2088156;28;26765;-68
2023/06/03 01:29:45;;;;;;;1.02;0.35;;;;;;;-146.25;66.42;52100.56;2081552;28;20044;-69
2023/06/03 01:30:48;;;;;;;4.22;0.50;;;;;;;-146.25;66.75;52130.97;2080480;28;20176;-68
2023/06/03 01:31:54;;;;;;;1.08;0.30;;;;;;;-146.25;66.77;52124.91;2080517;28;20045;-69
2023/06/03 01:32:55;;;;;;;1.83;0.38;;;;;;;-146.25;66.81;52108.66;2080149;28;25089;-70
2023/06/03 01:33:57;;;;;;;2.05;0.40;;;;;;;-146.25;66.87;52098.53;2071548;28;24980;-70
2023/06/03 01:35:00;;;;;;;1.92;0.30;;;;;;;-146.25;67.24;52139.09;2072195;28;23835;-69
2023/06/03 01:36:04;;;;;;;1.10;0.40;;;;;;;-146.25;67.40;52141.13;2079656;28;37432;-69
2023/06/03 01:37:12;;;;;;;2.38;0.40;;;;;;;-146.25;67.96;52124.91;2080714;28;20088;-69
2023/06/03 01:38:15;;;;;;;1.65;0.40;;;;;;;-146.25;68.61;52147.19;2079532;28;20794;-69
2023/06/03 01:39:18;;;;;;;0.88;0.30;;;;;;;-146.25;68.24;52135.03;2072278;28;20039;-69
2023/06/03 01:40:20;;;;;;;0.90;0.30;;;;;;;-146.25;68.32;52124.91;2072911;28;20212;-69
2023/06/03 01:41:25;;;;;;;2.00;0.50;;;;;;;-146.25;68.20;52141.13;2071318;28;24473;-69
2023/06/03 01:42:29;;;;;;;1.65;0.55;;;;;;;-146.25;69.55;52098.53;2072505;28;20149;-68
2023/06/03 01:43:32;;;;;;;3.13;0.40;;;;;;;-146.25;69.09;52130.97;2080382;28;21002;-69
2023/06/03 01:44:34;;;;;;;3.13;0.40;;;;;;;-146.25;69.24;52096.50;2079873;28;20041;-69
2023/06/03 01:45:36;;;;;;;1.58;0.35;;;;;;;-146.25;69.01;52173.56;2072408;28;21058;-70
2023/06/03 01:46:38;;;;;;;1.65;0.50;;;;;;;-146.25;69.60;52163.41;2071994;28;20903;-69
2023/06/03 01:47:40;;;;;;;1.83;0.40;;;;;;;-146.25;70.28;52141.13;2079446;28;33422;-70
2023/06/03 01:48:42;;;;;;;1.40;0.40;;;;;;;-146.25;70.02;52120.84;2080097;28;20038;-68
2023/06/03 01:49:45;;;;;;;2.40;0.40;;;;;;;-146.25;70.16;52149.22;2079786;28;25025;-69
2023/06/03 01:50:47;;;;;;;1.10;0.32;;;;;;;-146.25;69.94;52133.00;2080749;28;21316;-68
2023/06/03 01:51:50;;;;;;;1.83;0.38;;;;;;;-146.25;70.17;52124.91;2080758;28;20971;-66
2023/06/03 01:52:52;;;;;;;2.25;0.32;;;;;;;-146.25;70.07;52155.31;2079566;28;28067;-68
2023/06/03 01:53:55;;;;;;;1.30;0.40;;;;;;;-146.25;70.50;52145.16;2088384;28;20104;-67
2023/06/03 01:54:58;;;;;;;1.55;0.30;;;;;;;-146.25;70.68;52110.69;2080006;28;20042;-68
2023/06/03 01:56:01;;;;;;;2.58;0.38;;;;;;;-146.25;71.08;52124.91;2080648;28;20050;-68
2023/06/03 01:57:03;;;;;;;2.38;0.40;;;;;;;-146.25;72.08;52141.13;2079355;28;20054;-68
2023/06/03 01:58:05;;;;;;;1.15;0.40;;;;;;;-146.25;72.23;52141.13;2063998;28;21022;-69
2023/06/03 01:59:07;;;;;;;1.23;0.30;;;;;;;-146.25;72.82;52130.97;2071840;28;20050;-68
2023/06/03 02:00:11;;;;;;;2.47;0.40;;;;;;;-146.25;72.50;52147.19;2063364;28;20051;-68
2023/06/03 02:01:15;;;;;;;2.65;0.40;;;;;;;-146.25;72.15;52155.31;2072834;28;20057;-67
2023/06/03 02:02:17;;;;;;;1.40;0.40;;;;;;;-146.25;72.52;52122.88;2088612;28;20044;-70
2023/06/03 02:03:19;;;;;;;1.73;0.30;;;;;;;-146.25;72.64;52151.25;2078890;28;31476;-68
2023/06/03 02:04:22;;;;;;;1.35;0.40;;;;;;;-146.25;72.86;52120.84;2080379;28;21522;-68
2023/06/03 02:05:24;;;;;;;1.30;0.32;;;;;;;-146.25;73.11;52124.91;2079617;28;20123;-68
2023/06/03 02:06:26;;;;;;;1.88;0.43;;;;;;;-146.25;72.71;52133.00;2072425;28;20046;-69
2023/06/03 02:07:30;;;;;;;1.52;0.30;;;;;;;-146.25;72.99;52126.91;2080381;28;20787;-68
2023/06/03 02:08:32;;;;;;;1.20;0.30;;;;;;;-146.25;72.66;52153.28;2088368;28;20118;-69
2023/06/03 02:09:34;;;;;;;2.05;0.40;;;;;;;-146.25;72.93;52137.06;2088198;28;22714;-70
2023/06/03 02:10:35;;;;;;;1.58;0.60;;;;;;;-146.25;72.83;52179.63;2081145;28;20157;-69
2023/06/03 02:11:42;;;;;;;3.10;0.40;;;;;;;-146.25;72.68;52141.13;2079719;28;20034;-69
2023/06/03 02:12:45;;;;;;;4.10;0.43;;;;;;;-146.25;72.85;52163.41;2064768;28;20047;-69
2023/06/03 02:13:50;;;;;;;2.88;0.40;;;;;;;-146.25;71.81;52181.66;2072513;28;20141;-69
2023/06/03 02:14:53;;;;;;;3.42;0.40;;;;;;;-146.25;72.39;52151.25;2080640;28;20072;-70
2023/06/03 02:15:56;;;;;;;2.20;0.45;;;;;;;-146.25;71.75;52112.72;2080038;28;20053;-69
2023/06/03 02:16:59;;;;;;;1.70;0.40;;;;;;;-146.25;71.60;52124.91;2080270;28;20152;-70
2023/06/03 02:18:03;;;;;;;2.60;0.40;;;;;;;-146.25;71.44;52120.84;2079857;28;22317;-70
2023/06/03 02:19:19;;;;;;;2.17;0.55;;;;;;;-146.25;71.64;52114.75;2071635;28;32993;-70
2023/06/03 02:20:22;;;;;;;3.00;0.30;;;;;;;-146.25;72.41;52122.88;2074186;28;20941;-70
2023/06/03 02:21:24;;;;;;;2.08;0.30;;;;;;;-146.25;72.68;52151.25;2079966;28;23647;-70
2023/06/03 02:22:26;;;;;;;3.42;0.35;;;;;;;-146.25;72.17;52126.91;2080897;28;20124;-69
2023/06/03 02:23:28;;;;;;;2.35;0.35;;;;;;;-146.25;72.27;52177.59;2080029;28;20208;-68
2023/06/03 02:24:31;;;;;;;1.35;0.40;;;;;;;-146.25;72.30;52133.00;2080144;28;20093;-69
2023/06/03 02:25:33;;;;;;;2.15;0.40;;;;;;;-146.25;72.58;52112.72;2087545;28;30845;-67
2023/06/03 02:26:50;;;;;;;1.80;0.22;;;;;;;-146.25;72.09;52128.94;2079761;28;20882;-69
2023/06/03 02:27:54;;;;;;;2.78;0.68;;;;;;;-146.25;72.39;52108.66;2073125;28;20918;-69
2023/06/03 02:28:56;;;;;;;2.75;0.45;;;;;;;-146.25;73.00;52122.88;2079629;28;32324;-68
2023/06/03 02:29:58;;;;;;;3.45;0.47;;;;;;;-146.25;72.03;52157.34;2079680;28;20057;-68
2023/06/03 02:31:00;;;;;;;1.98;0.43;;;;;;;-146.25;71.61;52165.44;2071649;28;20042;-68
2023/06/03 02:32:02;;;;;;;2.83;0.55;;;;;;;-146.25;72.13;52165.44;2071369;28;27617;-68
2023/06/03 02:33:04;;;;;;;4.03;0.30;;;;;;;-146.25;72.30;52149.22;2071602;28;20156;-68
2023/06/03 02:34:06;;;;;;;2.58;0.55;;;;;;;-146.25;73.13;52120.84;2079793;28;27198;-70
2023/06/03 02:35:08;;;;;;;1.15;0.43;;;;;;;-146.25;72.93;52118.81;2079954;28;20072;-68
2023/06/03 02:36:11;;;;;;;2.42;0.60;;;;;;;-146.25;72.93;52137.06;2071715;28;20819;-70
2023/06/03 02:37:15;;;;;;;2.72;0.50;;;;;;;-146.25;73.52;52126.91;2072076;28;20038;-69
2023/06/03 02:38:17;;;;;;;0.85;0.38;;;;;;;-146.25;72.94;52145.16;2071539;28;20085;-69
2023/06/03 02:39:20;;;;;;;3.08;0.47;;;;;;;-146.25;73.55;52153.28;2079581;28;20030;-69
2023/06/03 02:40:22;;;;;;;2.47;0.40;;;;;;;-146.25;73.46;52157.34;2087906;28;20973;-69
2023/06/03 02:41:23;;;;;;;1.95;0.30;;;;;;;-146.25;73.45;52137.06;2087650;28;20079;-68
2023/06/03 02:42:25;;;;;;;1.52;0.40;;;;;;;-146.25;73.49;52118.81;2080063;28;20045;-69
2023/06/03 02:43:27;;;;;;;2.20;0.30;;;;;;;-146.25;73.63;52120.84;2079743;28;23728;-68
2023/06/03 02:44:29;;;;;;;3.00;0.52;;;;;;;-146.25;74.22;52126.91;2063659;28;22209;-67
2023/06/03 02:45:34;;;;;;;1.13;0.30;;;;;;;-146.25;74.28;52183.69;2072362;28;20050;-67
2023/06/03 02:46:36;;;;;;;1.58;0.50;;;;;;;-146.25;74.36;52122.88;2079823;28;21074;-68
2023/06/03 02:47:38;;;;;;;4.18;0.40;;;;;;;-146.25;74.41;52133.00;2079612;28;24075;-69
2023/06/03 02:48:40;;;;;;;1.50;0.30;;;;;;;-146.25;74.32;52155.31;2071078;28;29872;-69
2023/06/03 02:49:43;;;;;;;1.30;0.40;;;;;;;-146.25;74.66;52124.91;2080085;28;20172;-68
2023/06/03 02:50:46;;;;;;;0.98;0.30;;;;;;;-146.25;74.24;52124.91;2079540;28;20034;-68
2023/06/03 02:51:50;;;;;;;3.40;0.63;;;;;;;-146.25;74.80;52153.28;2079766;28;20787;-69
2023/06/03 02:52:51;;;;;;;1.52;0.38;;;;;;;-146.25;74.91;52124.91;2079406;28;27803;-69
2023/06/03 02:53:55;;;;;;;1.13;0.38;;;;;;;-146.25;75.62;52157.34;2079661;28;20993;-69
2023/06/03 02:54:57;;;;;;;2.00;0.50;;;;;;;-146.25;76.33;52155.31;2080084;28;20042;-69
2023/06/03 02:55:59;;;;;;;3.47;0.40;;;;;;;-146.25;76.52;52175.56;2087629;28;20045;-68
2023/06/03 02:57:01;;;;;;;1.70;0.30;;;;;;;-146.25;76.52;52147.19;2079536;28;21280;-68
2023/06/03 02:58:03;;;;;;;1.67;0.35;;;;;;;-146.25;77.04;52141.13;2079488;28;21024;-69
2023/06/03 02:59:07;;;;;;;1.52;0.52;;;;;;;-146.25;77.16;52157.34;2080157;28;37372;-69
2023/06/03 03:00:11;;;;;;;2.55;0.52;;;;;;;-146.25;77.12;52149.22;2087540;28;30366;-69
2023/06/03 03:01:12;;;;;;;1.70;0.47;;;;;;;-146.25;78.22;52161.38;2087167;28;20977;-67
2023/06/03 03:02:17;;;;;;;1.48;0.30;;;;;;;-146.25;78.38;52137.06;2079249;28;28973;-68
2023/06/03 03:03:19;;;;;;;1.92;0.50;;;;;;;-146.25;78.45;52165.44;2079379;28;20800;-68
2023/06/03 03:04:22;;;;;;;1.88;0.40;;;;;;;-146.25;78.27;52135.03;2080439;28;20840;-69
2023/06/03 03:05:24;;;;;;;2.00;0.50;;;;;;;-146.25;78.82;52185.72;2079379;28;20169;-69
2023/06/03 03:06:29;;;;;;;2.15;0.40;;;;;;;-146.25;79.21;52126.91;2079787;28;20077;-69
2023/06/03 03:07:32;;;;;;;1.15;0.40;;;;;;;-146.25;78.97;52149.22;2079516;28;24054;-69
2023/06/03 03:08:34;;;;;;;1.20;0.50;;;;;;;-146.25;79.34;52167.47;2078816;28;20060;-68
2023/06/03 03:09:38;;;;;;;2.53;0.40;;;;;;;-146.25;79.39;52147.19;2079611;28;20030;-69
2023/06/03 03:10:45;;;;;;;2.13;0.40;;;;;;;-146.25;79.43;52133.00;2072418;28;20030;-69
2023/06/03 03:11:47;;;;;;;3.08;0.50;;;;;;;-146.25;79.95;52145.16;2071917;28;20645;-68
2023/06/03 03:12:50;;;;;;;1.20;0.40;;;;;;;-146.25;79.82;52159.34;2079370;28;21048;-68
2023/06/03 03:13:54;;;;;;;3.33;0.35;;;;;;;-146.25;79.86;52151.25;2071700;28;20768;-68
2023/06/03 03:14:58;;;;;;;2.20;0.40;;;;;;;-146.25;80.14;52124.91;2080064;28;20035;-69
2023/06/03 03:16:03;;;;;;;1.42;0.38;;;;;;;-146.25;80.82;52161.38;2079591;28;20119;-68
2023/06/03 03:17:07;;;;;;;2.97;0.35;;;;;;;-146.25;80.29;52137.06;2080080;28;20133;-69
2023/06/03 03:18:09;;;;;;;1.98;0.40;;;;;;;-146.25;80.76;52155.31;2079282;28;20196;-69
2023/06/03 03:19:11;;;;;;;2.03;0.50;;;;;;;-146.25;80.51;52108.66;2080100;28;20139;-69
2023/06/03 03:20:14;;;;;;;2.53;0.57;;;;;;;-146.25;80.67;52155.31;2079513;28;20984;-70
2023/06/03 03:21:16;;;;;;;3.95;0.40;;;;;;;-146.25;80.09;52169.50;2079710;28;20042;-70
2023/06/03 03:22:20;;;;;;;1.38;0.47;;;;;;;-146.25;80.35;52187.75;2071596;28;20176;-68
2023/06/03 03:23:23;;;;;;;2.30;0.50;;;;;;;-146.25;80.51;52169.50;2072072;28;20773;-69
2023/06/03 03:24:25;;;;;;;2.67;0.47;;;;;;;-146.25;80.73;52143.13;2062952;28;20046;-68
2023/06/03 03:25:30;;;;;;;1.30;0.60;;;;;;;-146.25;80.53;52141.13;2064415;28;20946;-70
2023/06/03 03:26:33;;;;;;;1.08;0.50;;;;;;;-146.25;80.69;52126.91;2079485;28;20042;-70
2023/06/03 03:27:38;;;;;;;1.83;0.45;;;;;;;-146.25;80.61;52153.28;2087698;28;20152;-69
2023/06/03 03:28:39;;;;;;;1.45;0.40;;;;;;;-146.25;80.95;52153.28;2086422;28;22609;-69
2023/06/03 03:29:45;;;;;;;3.47;0.50;;;;;;;-146.25;80.74;52143.13;2079823;28;25727;-69
2023/06/03 03:30:49;;;;;;;1.10;0.47;;;;;;;-146.25;80.84;52149.22;2079464;28;20046;-68
2023/06/03 03:31:57;;;;;;;1.95;0.57;;;;;;;-146.25;81.86;52161.38;2071750;28;20046;-69
2023/06/03 03:32:59;;;;;;;4.63;0.75;;;;;;;-146.25;81.47;52161.38;2071970;28;21919;-68
2023/06/03 03:34:02;;;;;;;1.85;0.40;;;;;;;-146.25;81.42;52116.78;2079878;28;20074;-67
2023/06/03 03:35:20;;;;;;;1.50;0.57;;;;;;;-146.25;80.92;52137.06;2079069;28;20061;-66
2023/06/03 03:36:28;;;;;;;2.30;0.55;;;;;;;-146.25;81.31;52137.06;2071548;28;20049;-70
2023/06/03 03:37:38;;;;;;;;;;;;;;;-146.25;81.50;52167.47;2067308;28;20830;-69
2023/06/03 03:38:40;;;;;;;1.25;0.43;;;;;;;-146.25;80.90;52139.09;2079558;28;20002;-69
2023/06/03 03:39:42;;;;;;;1.88;0.73;;;;;;;-146.25;80.63;52181.66;2079575;28;20145;-68
2023/06/03 03:40:47;;;;;;;2.08;0.57;;;;;;;-146.25;80.41;52126.91;2079222;28;20057;-70
2023/06/03 03:41:49;;;;;;;1.48;0.40;;;;;;;-146.25;80.20;52147.19;2079506;28;20865;-70
2023/06/03 03:42:55;;;;;;;0.98;0.40;;;;;;;-146.25;80.04;52175.56;2070582;28;20241;-67
2023/06/03 03:44:05;;;;;;;2.13;0.30;;;;;;;-146.25;80.08;52153.28;2072462;28;20046;-69
2023/06/03 03:45:17;;;;;;;0.90;0.35;;;;;;;-146.25;79.98;52141.13;2079455;28;27900;-70
2023/06/03 03:46:21;;;;;;;1.92;0.57;;;;;;;-146.25;79.32;52161.38;2080232;28;20910;-68
2023/06/03 03:47:23;;;;;;;3.72;0.50;;;;;;;-146.25;79.31;52116.78;2062958;28;20055;-69
2023/06/03 03:48:28;;;;;;;1.80;0.52;;;;;;;-146.25;78.94;52155.31;2071209;28;20045;-70
2023/06/03 03:49:34;;;;;;;3.33;0.50;;;;;;;-146.25;78.82;52133.00;2079780;28;20152;-70
2023/06/03 03:50:47;;;;;;;3.85;0.68;;;;;;;-146.25;78.51;52181.66;2078346;28;20045;-69
2023/06/03 03:51:57;;;;;;;1.98;0.52;;;;;;;-146.25;78.07;52177.59;2067604;28;20057;-70
2023/06/03 03:53:04;;;;;;;2.75;0.50;;;;;;;-146.25;77.58;52151.25;2063193;28;20912;-68
2023/06/03 03:54:06;;;;;;;2.15;0.43;;;;;;;-146.25;77.53;52161.38;2063403;28;20055;-69
2023/06/03 03:55:07;;;;;;;2.17;0.57;;;;;;;-146.25;78.14;52185.72;2072028;28;20168;-69
2023/06/03 03:56:12;;;;;;;2.28;0.47;;;;;;;-146.25;77.39;52185.72;2079385;28;20949;-68
2023/06/03 03:57:21;;;;;;;1.42;0.40;;;;;;;-146.25;77.12;52120.84;2080341;28;20050;-70
2023/06/03 03:58:40;;;;;;;2.35;0.50;;;;;;;-146.25;76.40;52157.34;2079186;28;20973;-70
2023/06/03 03:59:46;;;;;;;1.45;0.40;;;;;;;-146.25;75.37;52157.34;2073542;28;20329;-68
2023/06/03 04:00:50;;;;;;;1.25;0.38;;;;;;;-146.25;74.09;52191.81;2079709;28;20038;-70
2023/06/03 04:01:53;;;;;;;2.35;0.40;;;;;;;-146.25;72.36;52183.69;2087444;28;20050;-70
2023/06/03 04:02:57;;;;;;;0.75;0.32;;;;;;;-146.25;69.83;52120.84;2079671;28;20933;-70
2023/06/03 04:03:59;;;;;;;3.63;0.40;;;;;;;-146.25;67.24;52118.81;2079285;28;27852;-68
2023/06/03 04:05:03;;;;;;;2.08;0.50;;;;;;;-146.25;65.39;52149.22;2079114;28;32110;-68
2023/06/03 04:06:09;;;;;;;1.13;0.30;;;;;;;-146.25;62.43;52185.72;2079448;28;20038;-69
2023/06/03 04:07:18;;;;;;;2.28;0.57;;;;;;;-146.25;57.56;52163.41;2072982;28;21068;-70
2023/06/03 04:08:43;;;;;;;2.55;0.55;;;;;;;-146.25;55.99;52167.47;2072685;28;23149;-70
2023/06/03 04:09:45;;;;;;;1.35;0.47;;;;;;;-146.25;53.98;52153.28;2079809;28;20049;-70
2023/06/03 04:10:49;;;;;;;1.95;0.50;;;;;;;-146.25;51.03;52155.31;2080198;28;20037;-70
2023/06/03 04:11:51;;;;;;;3.20;0.25;;;;;;;-146.25;51.01;52155.31;2079679;28;32875;-70
2023/06/03 04:12:57;;;;;;;2.30;0.35;;;;;;;-146.25;50.21;52161.38;2078840;28;20127;-69
2023/06/03 04:14:03;;;;;;;1.52;0.45;;;;;;;-146.25;48.37;52157.34;2079161;28;32281;-70
2023/06/03 04:15:08;;;;;;;1.00;0.30;;;;;;;-146.25;46.55;52124.91;2087518;28;20042;-69
2023/06/03 04:16:22;;;;;;;1.85;0.30;;;;;;;-146.25;45.64;52151.25;2078618;28;20054;-70
2023/06/03 04:17:27;;;;;;;2.13;0.40;;;;;;;-146.25;45.03;52175.56;2079447;28;24519;-69
2023/06/03 04:18:29;;;;;;;2.20;0.43;;;;;;;-146.25;41.55;52135.03;2078895;28;25040;-70
2023/06/03 04:19:37;;;;;;;3.63;0.40;;;;;;;-146.25;43.35;52149.22;2079635;28;20091;-70
2023/06/03 04:20:48;;;;;;;2.58;0.60;;;;;;;-146.25;41.85;52133.00;2087155;28;20160;-69
2023/06/03 04:21:51;;;;;;;2.00;0.40;;;;;;;-146.25;41.17;52143.13;2074597;28;20181;-69
2023/06/03 04:22:52;;;;;;;1.25;0.43;;;;;;;-146.25;39.95;52165.44;2080629;28;20204;-69
2023/06/03 04:23:54;;;;;;;1.70;0.35;;;;;;;-146.25;38.28;52124.91;2081035;28;20037;-68
2023/06/03 04:24:59;;;;;;;2.00;0.30;;;;;;;-146.25;38.63;52161.38;2080773;28;20204;-69
2023/06/03 04:26:13;;;;;;;1.25;0.30;;;;;;;-146.25;38.72;52149.22;2079207;28;20127;-69
2023/06/03 04:27:15;;;;;;;3.35;0.57;;;;;;;-146.25;39.25;52139.09;2066417;28;20094;-70
2023/06/03 04:28:18;;;;;;;1.27;0.32;;;;;;;-146.25;38.71;52124.91;2073139;28;21029;-70
2023/06/03 04:29:22;;;;;;;1.88;0.30;;;;;;;-146.25;37.91;52130.97;2080493;28;20181;-69
2023/06/03 04:30:26;;;;;;;1.63;0.50;;;;;;;-146.25;37.40;52114.75;2065103;28;20042;-68
2023/06/03 04:31:28;;;;;;;1.30;0.28;;;;;;;-146.25;36.31;52128.94;2073167;28;20046;-69
2023/06/03 04:32:30;;;;;;;2.05;0.30;;;;;;;-146.25;37.30;52159.34;2081040;28;20075;-68
2023/06/03 04:33:33;;;;;;;1.00;0.40;;;;;;;-146.25;35.46;52116.78;2072642;28;20054;-69
2023/06/03 04:34:48;;;;;;;2.30;0.65;;;;;;;-146.25;36.49;52096.50;2072635;28;20086;-68
2023/06/03 04:35:51;;;;;;;1.63;0.30;;;;;;;-146.25;37.39;52126.91;2080778;28;20038;-70
2023/06/03 04:36:55;;;;;;;1.30;0.40;;;;;;;-146.25;37.20;52130.97;2081647;28;20037;-69
2023/06/03 04:38:00;;;;;;;1.05;0.32;;;;;;;-146.25;36.49;52124.91;2080814;28;20915;-69
2023/06/03 04:39:05;;;;;;;2.30;0.30;;;;;;;-146.25;35.57;52126.91;2081079;28;20038;-70
2023/06/03 04:40:10;;;;;;;1.60;0.30;;;;;;;-146.25;34.61;52082.31;2080562;28;20046;-69
2023/06/03 04:41:15;;;;;;;2.13;0.40;;;;;;;-146.25;33.95;52102.59;2080189;28;20042;-69
2023/06/03 04:42:18;;;;;;;2.67;0.50;;;;;;;-146.25;34.20;52112.72;2080760;28;20825;-68
2023/06/03 04:43:22;;;;;;;3.00;0.45;;;;;;;-146.25;35.97;52149.22;2080852;28;20325;-69
2023/06/03 04:44:28;;;;;;;2.17;0.45;;;;;;;-146.25;36.14;52135.03;2080240;28;20049;-71
2023/06/03 04:45:32;;;;;;;1.83;0.40;;;;;;;-146.25;34.94;52157.34;2072757;28;20049;-71
2023/06/03 04:46:39;;;;;;;1.90;0.50;;;;;;;-146.25;34.91;52110.69;2081232;28;20952;-70
2023/06/03 04:47:41;;;;;;;2.17;0.40;;;;;;;-146.25;33.94;52088.41;2087974;28;29522;-68
2023/06/03 04:48:45;;;;;;;4.05;0.40;;;;;;;-146.25;33.21;52124.91;2080934;28;20057;-70
2023/06/03 04:49:48;;;;;;;2.13;0.40;;;;;;;-146.25;32.57;52104.63;2080741;28;20050;-70
2023/06/03 04:50:49;;;;;;;1.77;0.40;;;;;;;-146.25;33.58;52102.59;2080922;28;32259;-69
2023/06/03 04:51:52;;;;;;;2.47;0.38;;;;;;;-146.25;33.84;52124.91;2081257;28;20132;-71
2023/06/03 04:52:56;;;;;;;1.90;0.50;;;;;;;-146.25;33.03;52106.66;2081421;28;20046;-69
2023/06/03 04:53:57;;;;;;;2.53;0.40;;;;;;;-146.25;32.90;52090.44;2080511;28;20146;-70
2023/06/03 04:55:00;;;;;;;1.38;0.30;;;;;;;-146.25;31.65;52084.34;2081045;28;20925;-70
2023/06/03 04:56:06;;;;;;;3.03;0.30;;;;;;;-146.25;31.79;52092.44;2080409;28;20181;-70